sensor_id;sensor_type;location;lat;lon;timestamp;temperature;humidity
26743;DHT22;14341;51.256;22.478;2023-04-24T00:01:03;9.50;99.90
26743;DHT22;14341;51.256;22.478;2023-04-24T00:04:09;9.40;99.90
26743;DHT22;14341;51.256;22.478;2023-04-24T00:07:16;9.30;99.90
26743;DHT22;14341;51.256;22.478;2023-04-24T00:10:19;9.20;99.90
26743;DHT22;14341;51.256;22.478;2023-04-24T00:13:23;9.00;99.90
26743;DHT22;14341;51.256;22.478;2023-04-24T00:16:28;9.10;99.90
26743;DHT22;14341;51.256;22.478;2023-04-24T00:19:31;9.00;99.90
26743;DHT22;14341;51.256;22.478;2023-04-24T00:22:34;9.00;99.90
26743;DHT22;14341;51.256;22.478;2023-04-24T00:25:38;9.00;99.90
26743;DHT22;14341;51.256;22.478;2023-04-24T00:28:41;8.90;99.90
26743;DHT22;14341;51.256;22.478;2023-04-24T00:31:47;9.00;99.90
26743;DHT22;14341;51.256;22.478;2023-04-24T00:34:50;8.90;99.90
26743;DHT22;14341;51.256;22.478;2023-04-24T00:37:54;8.80;99.90
26743;DHT22;14341;51.256;22.478;2023-04-24T00:40:57;8.70;99.90
26743;DHT22;14341;51.256;22.478;2023-04-24T00:44:00;8.60;99.90
26743;DHT22;14341;51.256;22.478;2023-04-24T00:47:05;8.50;99.90
26743;DHT22;14341;51.256;22.478;2023-04-24T00:50:09;8.40;99.90
26743;DHT22;14341;51.256;22.478;2023-04-24T00:53:13;8.30;99.90
26743;DHT22;14341;51.256;22.478;2023-04-24T00:56:18;8.20;99.90
26743;DHT22;14341;51.256;22.478;2023-04-24T00:59:21;8.10;99.90
26743;DHT22;14341;51.256;22.478;2023-04-24T01:02:26;8.10;99.90
26743;DHT22;14341;51.256;22.478;2023-04-24T01:05:30;8.00;99.90
26743;DHT22;14341;51.256;22.478;2023-04-24T01:08:34;8.00;99.90
26743;DHT22;14341;51.256;22.478;2023-04-24T01:11:39;7.90;99.90
26743;DHT22;14341;51.256;22.478;2023-04-24T01:14:46;7.90;99.90
26743;DHT22;14341;51.256;22.478;2023-04-24T01:17:51;7.80;99.90
26743;DHT22;14341;51.256;22.478;2023-04-24T01:20:58;7.90;99.90
26743;DHT22;14341;51.256;22.478;2023-04-24T01:24:04;7.90;99.90
26743;DHT22;14341;51.256;22.478;2023-04-24T01:27:09;7.90;99.90
26743;DHT22;14341;51.256;22.478;2023-04-24T01:30:14;8.10;99.90
26743;DHT22;14341;51.256;22.478;2023-04-24T01:33:17;8.10;99.90
26743;DHT22;14341;51.256;22.478;2023-04-24T01:36:22;8.30;99.90
26743;DHT22;14341;51.256;22.478;2023-04-24T01:39:29;8.30;99.90
26743;DHT22;14341;51.256;22.478;2023-04-24T01:42:33;8.50;99.90
26743;DHT22;14341;51.256;22.478;2023-04-24T01:45:37;8.50;99.90
26743;DHT22;14341;51.256;22.478;2023-04-24T01:48:40;8.90;99.90
26743;DHT22;14341;51.256;22.478;2023-04-24T01:51:44;8.90;99.90
26743;DHT22;14341;51.256;22.478;2023-04-24T01:54:49;8.90;99.90
26743;DHT22;14341;51.256;22.478;2023-04-24T01:57:52;8.70;99.90
26743;DHT22;14341;51.256;22.478;2023-04-24T02:04:18;8.80;99.90
26743;DHT22;14341;51.256;22.478;2023-04-24T02:07:22;8.70;99.90
26743;DHT22;14341;51.256;22.478;2023-04-24T02:10:27;8.70;99.90
26743;DHT22;14341;51.256;22.478;2023-04-24T02:13:30;8.60;99.90
26743;DHT22;14341;51.256;22.478;2023-04-24T02:16:35;8.60;99.90
26743;DHT22;14341;51.256;22.478;2023-04-24T02:19:38;8.70;99.90
26743;DHT22;14341;51.256;22.478;2023-04-24T02:22:42;8.70;99.90
26743;DHT22;14341;51.256;22.478;2023-04-24T02:25:46;8.80;99.90
26743;DHT22;14341;51.256;22.478;2023-04-24T02:28:52;8.90;99.90
26743;DHT22;14341;51.256;22.478;2023-04-24T02:31:55;8.90;99.90
26743;DHT22;14341;51.256;22.478;2023-04-24T02:34:59;8.80;99.90
26743;DHT22;14341;51.256;22.478;2023-04-24T02:38:03;8.80;99.90
26743;DHT22;14341;51.256;22.478;2023-04-24T02:41:09;8.70;99.90
26743;DHT22;14341;51.256;22.478;2023-04-24T02:44:13;8.80;99.90
26743;DHT22;14341;51.256;22.478;2023-04-24T02:47:16;8.70;99.90
26743;DHT22;14341;51.256;22.478;2023-04-24T02:50:20;8.70;99.90
26743;DHT22;14341;51.256;22.478;2023-04-24T02:53:23;8.80;99.90
26743;DHT22;14341;51.256;22.478;2023-04-24T02:56:28;8.70;99.90
26743;DHT22;14341;51.256;22.478;2023-04-24T02:59:33;8.60;99.90
26743;DHT22;14341;51.256;22.478;2023-04-24T03:02:36;8.20;99.90
26743;DHT22;14341;51.256;22.478;2023-04-24T03:05:40;8.40;99.90
26743;DHT22;14341;51.256;22.478;2023-04-24T03:08:43;8.30;99.90
26743;DHT22;14341;51.256;22.478;2023-04-24T03:11:48;8.40;99.90
26743;DHT22;14341;51.256;22.478;2023-04-24T03:14:51;8.50;99.90
26743;DHT22;14341;51.256;22.478;2023-04-24T03:17:55;8.60;99.90
26743;DHT22;14341;51.256;22.478;2023-04-24T03:20:58;8.60;99.90
26743;DHT22;14341;51.256;22.478;2023-04-24T03:24:02;8.60;99.90
26743;DHT22;14341;51.256;22.478;2023-04-24T03:27:07;8.60;99.90
26743;DHT22;14341;51.256;22.478;2023-04-24T03:30:26;8.70;99.90
26743;DHT22;14341;51.256;22.478;2023-04-24T03:33:33;8.80;99.90
26743;DHT22;14341;51.256;22.478;2023-04-24T03:36:37;8.90;99.90
26743;DHT22;14341;51.256;22.478;2023-04-24T03:39:42;8.90;99.90
26743;DHT22;14341;51.256;22.478;2023-04-24T03:42:48;8.80;99.90
26743;DHT22;14341;51.256;22.478;2023-04-24T03:45:52;8.80;99.90
26743;DHT22;14341;51.256;22.478;2023-04-24T03:48:56;8.80;99.90
26743;DHT22;14341;51.256;22.478;2023-04-24T03:52:04;8.80;99.90
26743;DHT22;14341;51.256;22.478;2023-04-24T03:55:07;8.80;99.90
26743;DHT22;14341;51.256;22.478;2023-04-24T03:58:21;8.80;99.90
26743;DHT22;14341;51.256;22.478;2023-04-24T04:01:24;8.70;99.90
26743;DHT22;14341;51.256;22.478;2023-04-24T04:04:34;8.80;99.90
26743;DHT22;14341;51.256;22.478;2023-04-24T04:07:37;8.80;99.90
26743;DHT22;14341;51.256;22.478;2023-04-24T04:10:41;8.80;99.90
26743;DHT22;14341;51.256;22.478;2023-04-24T04:13:45;8.80;99.90
26743;DHT22;14341;51.256;22.478;2023-04-24T04:16:52;8.70;99.90
26743;DHT22;14341;51.256;22.478;2023-04-24T04:19:56;8.80;99.90
26743;DHT22;14341;51.256;22.478;2023-04-24T04:22:59;8.80;99.90
26743;DHT22;14341;51.256;22.478;2023-04-24T04:26:22;8.90;99.90
26743;DHT22;14341;51.256;22.478;2023-04-24T04:29:55;8.90;99.90
26743;DHT22;14341;51.256;22.478;2023-04-24T04:32:59;9.10;99.90
26743;DHT22;14341;51.256;22.478;2023-04-24T04:36:04;9.30;99.90
26743;DHT22;14341;51.256;22.478;2023-04-24T04:39:10;9.40;99.90
26743;DHT22;14341;51.256;22.478;2023-04-24T04:42:24;9.60;99.90
26743;DHT22;14341;51.256;22.478;2023-04-24T04:45:30;9.80;99.90
26743;DHT22;14341;51.256;22.478;2023-04-24T04:49:09;10.00;99.90
26743;DHT22;14341;51.256;22.478;2023-04-24T04:52:13;10.30;99.90
26743;DHT22;14341;51.256;22.478;2023-04-24T04:55:21;10.50;99.90
26743;DHT22;14341;51.256;22.478;2023-04-24T04:58:47;10.70;99.90
26743;DHT22;14341;51.256;22.478;2023-04-24T05:01:53;10.80;99.90
26743;DHT22;14341;51.256;22.478;2023-04-24T05:04:57;10.80;99.90
26743;DHT22;14341;51.256;22.478;2023-04-24T05:08:02;10.90;99.90
26743;DHT22;14341;51.256;22.478;2023-04-24T05:11:08;11.00;99.90
26743;DHT22;14341;51.256;22.478;2023-04-24T05:14:13;11.10;99.90
26743;DHT22;14341;51.256;22.478;2023-04-24T05:17:19;11.10;98.40
26743;DHT22;14341;51.256;22.478;2023-04-24T05:20:22;11.20;99.90
26743;DHT22;14341;51.256;22.478;2023-04-24T05:23:26;11.30;96.70
26743;DHT22;14341;51.256;22.478;2023-04-24T05:26:31;11.40;94.30
26743;DHT22;14341;51.256;22.478;2023-04-24T05:29:35;11.50;92.50
26743;DHT22;14341;51.256;22.478;2023-04-24T05:32:41;11.70;78.30
26743;DHT22;14341;51.256;22.478;2023-04-24T05:35:44;11.90;68.40
26743;DHT22;14341;51.256;22.478;2023-04-24T05:38:48;12.00;57.30
26743;DHT22;14341;51.256;22.478;2023-04-24T05:41:52;12.10;36.10
26743;DHT22;14341;51.256;22.478;2023-04-24T05:44:55;12.20;23.00
26743;DHT22;14341;51.256;22.478;2023-04-24T05:48:00;12.30;3.60
26743;DHT22;14341;51.256;22.478;2023-04-24T05:51:04;12.40;1.00
26743;DHT22;14341;51.256;22.478;2023-04-24T05:54:07;12.60;1.00
26743;DHT22;14341;51.256;22.478;2023-04-24T05:57:10;12.60;1.00
26743;DHT22;14341;51.256;22.478;2023-04-24T06:00:27;12.80;1.00
26743;DHT22;14341;51.256;22.478;2023-04-24T06:03:40;12.90;1.00
26743;DHT22;14341;51.256;22.478;2023-04-24T06:06:44;13.00;1.00
26743;DHT22;14341;51.256;22.478;2023-04-24T06:09:48;13.10;1.00
26743;DHT22;14341;51.256;22.478;2023-04-24T06:12:51;13.30;1.00
26743;DHT22;14341;51.256;22.478;2023-04-24T06:15:58;13.30;1.00
26743;DHT22;14341;51.256;22.478;2023-04-24T06:19:09;13.40;1.00
26743;DHT22;14341;51.256;22.478;2023-04-24T06:22:12;13.50;1.00
26743;DHT22;14341;51.256;22.478;2023-04-24T06:25:16;13.50;1.00
26743;DHT22;14341;51.256;22.478;2023-04-24T06:28:19;13.60;1.00
26743;DHT22;14341;51.256;22.478;2023-04-24T06:31:23;13.70;1.00
26743;DHT22;14341;51.256;22.478;2023-04-24T06:34:30;13.80;1.00
26743;DHT22;14341;51.256;22.478;2023-04-24T06:37:34;13.80;1.00
26743;DHT22;14341;51.256;22.478;2023-04-24T06:40:37;13.90;1.00
26743;DHT22;14341;51.256;22.478;2023-04-24T06:43:41;14.00;1.00
26743;DHT22;14341;51.256;22.478;2023-04-24T06:46:44;14.20;1.00
26743;DHT22;14341;51.256;22.478;2023-04-24T06:49:49;14.20;1.00
26743;DHT22;14341;51.256;22.478;2023-04-24T06:52:52;14.40;1.00
26743;DHT22;14341;51.256;22.478;2023-04-24T06:55:56;14.50;1.00
26743;DHT22;14341;51.256;22.478;2023-04-24T06:58:59;14.60;1.00
26743;DHT22;14341;51.256;22.478;2023-04-24T07:02:02;14.60;1.00
26743;DHT22;14341;51.256;22.478;2023-04-24T07:05:07;14.80;1.00
26743;DHT22;14341;51.256;22.478;2023-04-24T07:08:11;15.00;1.00
26743;DHT22;14341;51.256;22.478;2023-04-24T07:11:14;15.00;1.00
26743;DHT22;14341;51.256;22.478;2023-04-24T07:14:18;15.10;1.00
26743;DHT22;14341;51.256;22.478;2023-04-24T07:17:21;15.10;1.00
26743;DHT22;14341;51.256;22.478;2023-04-24T07:20:26;15.00;1.00
26743;DHT22;14341;51.256;22.478;2023-04-24T07:23:29;15.20;1.00
26743;DHT22;14341;51.256;22.478;2023-04-24T07:26:32;15.30;1.00
26743;DHT22;14341;51.256;22.478;2023-04-24T07:29:35;15.40;1.00
26743;DHT22;14341;51.256;22.478;2023-04-24T07:32:38;15.50;1.00
26743;DHT22;14341;51.256;22.478;2023-04-24T07:35:43;15.50;1.00
26743;DHT22;14341;51.256;22.478;2023-04-24T07:38:47;15.70;1.00
26743;DHT22;14341;51.256;22.478;2023-04-24T07:41:50;15.90;1.00
26743;DHT22;14341;51.256;22.478;2023-04-24T07:44:53;16.10;99.90
26743;DHT22;14341;51.256;22.478;2023-04-24T07:47:57;16.10;99.90
26743;DHT22;14341;51.256;22.478;2023-04-24T07:51:01;16.30;99.90
26743;DHT22;14341;51.256;22.478;2023-04-24T07:54:05;16.40;99.90
26743;DHT22;14341;51.256;22.478;2023-04-24T07:57:08;16.60;99.90
26743;DHT22;14341;51.256;22.478;2023-04-24T08:00:12;16.80;99.90
26743;DHT22;14341;51.256;22.478;2023-04-24T08:03:16;16.80;99.90
26743;DHT22;14341;51.256;22.478;2023-04-24T08:06:23;16.90;99.90
26743;DHT22;14341;51.256;22.478;2023-04-24T08:09:29;16.80;99.90
26743;DHT22;14341;51.256;22.478;2023-04-24T08:12:33;16.80;99.90
26743;DHT22;14341;51.256;22.478;2023-04-24T08:15:36;16.90;99.90
26743;DHT22;14341;51.256;22.478;2023-04-24T08:18:40;17.10;99.90
26743;DHT22;14341;51.256;22.478;2023-04-24T08:21:45;17.20;99.90
26743;DHT22;14341;51.256;22.478;2023-04-24T08:24:48;17.50;99.90
26743;DHT22;14341;51.256;22.478;2023-04-24T08:27:51;17.70;99.90
26743;DHT22;14341;51.256;22.478;2023-04-24T08:30:55;17.60;99.90
26743;DHT22;14341;51.256;22.478;2023-04-24T08:33:58;17.60;99.90
26743;DHT22;14341;51.256;22.478;2023-04-24T08:37:03;17.70;99.90
26743;DHT22;14341;51.256;22.478;2023-04-24T08:40:11;18.00;99.90
26743;DHT22;14341;51.256;22.478;2023-04-24T08:43:16;18.20;99.90
26743;DHT22;14341;51.256;22.478;2023-04-24T08:46:20;18.20;99.90
26743;DHT22;14341;51.256;22.478;2023-04-24T08:49:24;18.40;99.90
26743;DHT22;14341;51.256;22.478;2023-04-24T08:52:30;18.20;99.90
26743;DHT22;14341;51.256;22.478;2023-04-24T08:55:33;18.10;99.90
26743;DHT22;14341;51.256;22.478;2023-04-24T08:58:38;18.20;99.90
26743;DHT22;14341;51.256;22.478;2023-04-24T09:01:43;18.30;99.90
26743;DHT22;14341;51.256;22.478;2023-04-24T09:04:48;18.50;99.90
26743;DHT22;14341;51.256;22.478;2023-04-24T09:07:56;18.50;99.90
26743;DHT22;14341;51.256;22.478;2023-04-24T09:10:59;18.60;99.90
26743;DHT22;14341;51.256;22.478;2023-04-24T09:14:04;18.50;99.90
26743;DHT22;14341;51.256;22.478;2023-04-24T09:17:08;18.80;99.90
26743;DHT22;14341;51.256;22.478;2023-04-24T09:20:11;18.90;99.90
26743;DHT22;14341;51.256;22.478;2023-04-24T09:23:19;18.90;99.90
26743;DHT22;14341;51.256;22.478;2023-04-24T09:26:23;19.00;99.90
26743;DHT22;14341;51.256;22.478;2023-04-24T09:29:27;18.90;99.90
26743;DHT22;14341;51.256;22.478;2023-04-24T09:32:30;19.40;99.90
26743;DHT22;14341;51.256;22.478;2023-04-24T09:35:33;19.30;99.90
26743;DHT22;14341;51.256;22.478;2023-04-24T09:38:38;19.20;99.90
26743;DHT22;14341;51.256;22.478;2023-04-24T09:41:44;19.50;99.90
26743;DHT22;14341;51.256;22.478;2023-04-24T09:44:49;19.40;99.90
26743;DHT22;14341;51.256;22.478;2023-04-24T09:48:05;19.50;99.90
26743;DHT22;14341;51.256;22.478;2023-04-24T09:51:12;19.90;99.90
26743;DHT22;14341;51.256;22.478;2023-04-24T09:54:19;20.00;99.90
26743;DHT22;14341;51.256;22.478;2023-04-24T09:57:23;20.50;99.90
26743;DHT22;14341;51.256;22.478;2023-04-24T10:00:28;20.20;99.90
26743;DHT22;14341;51.256;22.478;2023-04-24T10:03:32;20.50;99.90
26743;DHT22;14341;51.256;22.478;2023-04-24T10:06:38;20.40;99.90
26743;DHT22;14341;51.256;22.478;2023-04-24T10:09:42;20.60;99.90
26743;DHT22;14341;51.256;22.478;2023-04-24T10:12:47;20.90;99.90
26743;DHT22;14341;51.256;22.478;2023-04-24T10:15:50;20.70;99.90
26743;DHT22;14341;51.256;22.478;2023-04-24T10:18:55;20.40;99.90
26743;DHT22;14341;51.256;22.478;2023-04-24T10:21:59;20.80;99.90
26743;DHT22;14341;51.256;22.478;2023-04-24T10:25:06;21.60;99.90
26743;DHT22;14341;51.256;22.478;2023-04-24T10:28:10;22.20;99.90
26743;DHT22;14341;51.256;22.478;2023-04-24T10:31:15;21.30;99.90
26743;DHT22;14341;51.256;22.478;2023-04-24T10:34:20;20.90;99.90
26743;DHT22;14341;51.256;22.478;2023-04-24T10:37:26;21.30;99.90
26743;DHT22;14341;51.256;22.478;2023-04-24T10:40:32;21.80;99.90
26743;DHT22;14341;51.256;22.478;2023-04-24T10:43:36;22.30;99.90
26743;DHT22;14341;51.256;22.478;2023-04-24T10:46:44;22.80;99.90
26743;DHT22;14341;51.256;22.478;2023-04-24T10:49:51;22.10;99.90
26743;DHT22;14341;51.256;22.478;2023-04-24T10:53:05;22.60;99.90
26743;DHT22;14341;51.256;22.478;2023-04-24T10:56:10;22.30;99.90
26743;DHT22;14341;51.256;22.478;2023-04-24T10:59:24;22.30;99.90
26743;DHT22;14341;51.256;22.478;2023-04-24T11:02:36;21.80;99.90
26743;DHT22;14341;51.256;22.478;2023-04-24T11:05:55;22.40;99.90
26743;DHT22;14341;51.256;22.478;2023-04-24T11:09:03;22.20;99.90
26743;DHT22;14341;51.256;22.478;2023-04-24T11:12:10;21.80;99.90
26743;DHT22;14341;51.256;22.478;2023-04-24T11:15:15;21.70;99.90
26743;DHT22;14341;51.256;22.478;2023-04-24T11:18:23;22.60;99.90
26743;DHT22;14341;51.256;22.478;2023-04-24T11:21:31;22.90;99.90
26743;DHT22;14341;51.256;22.478;2023-04-24T11:24:38;22.90;99.90
26743;DHT22;14341;51.256;22.478;2023-04-24T11:28:03;23.10;99.90
26743;DHT22;14341;51.256;22.478;2023-04-24T11:31:35;23.30;99.90
26743;DHT22;14341;51.256;22.478;2023-04-24T11:34:39;23.80;99.90
26743;DHT22;14341;51.256;22.478;2023-04-24T11:37:44;23.80;99.90
26743;DHT22;14341;51.256;22.478;2023-04-24T11:41:10;23.90;99.90
26743;DHT22;14341;51.256;22.478;2023-04-24T11:44:20;24.60;99.90
26743;DHT22;14341;51.256;22.478;2023-04-24T11:47:29;24.70;99.90
26743;DHT22;14341;51.256;22.478;2023-04-24T11:50:32;24.10;99.90
26743;DHT22;14341;51.256;22.478;2023-04-24T11:53:36;24.50;99.90
26743;DHT22;14341;51.256;22.478;2023-04-24T11:56:44;24.50;99.90
26743;DHT22;14341;51.256;22.478;2023-04-24T11:59:50;25.50;99.90
26743;DHT22;14341;51.256;22.478;2023-04-24T12:03:04;25.80;99.90
26743;DHT22;14341;51.256;22.478;2023-04-24T12:06:11;26.20;99.90
26743;DHT22;14341;51.256;22.478;2023-04-24T12:09:16;25.90;99.90
26743;DHT22;14341;51.256;22.478;2023-04-24T12:12:19;26.10;99.90
26743;DHT22;14341;51.256;22.478;2023-04-24T12:15:24;25.90;99.90
26743;DHT22;14341;51.256;22.478;2023-04-24T12:18:28;25.10;99.90
26743;DHT22;14341;51.256;22.478;2023-04-24T12:21:31;24.60;99.90
26743;DHT22;14341;51.256;22.478;2023-04-24T12:24:34;24.60;99.90
26743;DHT22;14341;51.256;22.478;2023-04-24T12:27:38;24.60;99.90
26743;DHT22;14341;51.256;22.478;2023-04-24T12:30:44;25.40;99.90
26743;DHT22;14341;51.256;22.478;2023-04-24T12:33:48;26.50;99.90
26743;DHT22;14341;51.256;22.478;2023-04-24T12:36:51;26.60;99.90
26743;DHT22;14341;51.256;22.478;2023-04-24T12:40:02;26.10;99.90
26743;DHT22;14341;51.256;22.478;2023-04-24T12:43:13;25.40;99.90
26743;DHT22;14341;51.256;22.478;2023-04-24T12:46:19;25.70;99.90
26743;DHT22;14341;51.256;22.478;2023-04-24T12:49:23;26.30;99.90
26743;DHT22;14341;51.256;22.478;2023-04-24T12:52:48;26.10;99.90
26743;DHT22;14341;51.256;22.478;2023-04-24T12:55:51;23.70;99.90
26743;DHT22;14341;51.256;22.478;2023-04-24T12:58:55;23.40;99.90
26743;DHT22;14341;51.256;22.478;2023-04-24T13:02:03;24.10;99.90
26743;DHT22;14341;51.256;22.478;2023-04-24T13:05:06;25.30;99.90
26743;DHT22;14341;51.256;22.478;2023-04-24T13:08:10;25.00;99.90
26743;DHT22;14341;51.256;22.478;2023-04-24T13:11:14;25.60;99.90
26743;DHT22;14341;51.256;22.478;2023-04-24T13:14:18;25.50;99.90
26743;DHT22;14341;51.256;22.478;2023-04-24T13:17:23;25.50;99.90
26743;DHT22;14341;51.256;22.478;2023-04-24T13:20:26;25.40;99.90
26743;DHT22;14341;51.256;22.478;2023-04-24T13:23:31;25.20;99.90
26743;DHT22;14341;51.256;22.478;2023-04-24T13:26:36;25.00;99.90
26743;DHT22;14341;51.256;22.478;2023-04-24T13:29:40;24.90;99.90
26743;DHT22;14341;51.256;22.478;2023-04-24T13:32:44;24.70;99.90
26743;DHT22;14341;51.256;22.478;2023-04-24T13:35:48;25.20;99.90
26743;DHT22;14341;51.256;22.478;2023-04-24T13:38:51;25.00;99.90
26743;DHT22;14341;51.256;22.478;2023-04-24T13:41:55;23.80;99.90
26743;DHT22;14341;51.256;22.478;2023-04-24T13:44:58;23.70;99.90
26743;DHT22;14341;51.256;22.478;2023-04-24T13:48:13;24.00;99.90
26743;DHT22;14341;51.256;22.478;2023-04-24T13:51:17;25.00;99.90
26743;DHT22;14341;51.256;22.478;2023-04-24T13:54:21;25.20;99.90
26743;DHT22;14341;51.256;22.478;2023-04-24T13:57:25;25.70;99.90
26743;DHT22;14341;51.256;22.478;2023-04-24T14:00:30;26.10;99.90
26743;DHT22;14341;51.256;22.478;2023-04-24T14:03:37;26.80;99.90
26743;DHT22;14341;51.256;22.478;2023-04-24T14:06:41;27.10;99.90
26743;DHT22;14341;51.256;22.478;2023-04-24T14:09:44;27.30;99.90
26743;DHT22;14341;51.256;22.478;2023-04-24T14:12:51;26.20;99.90
26743;DHT22;14341;51.256;22.478;2023-04-24T14:15:55;26.20;99.90
26743;DHT22;14341;51.256;22.478;2023-04-24T14:18:59;25.70;99.90
26743;DHT22;14341;51.256;22.478;2023-04-24T14:22:05;26.30;99.90
26743;DHT22;14341;51.256;22.478;2023-04-24T14:25:09;25.80;99.90
26743;DHT22;14341;51.256;22.478;2023-04-24T14:28:12;25.70;99.90
26743;DHT22;14341;51.256;22.478;2023-04-24T14:31:15;25.70;99.90
26743;DHT22;14341;51.256;22.478;2023-04-24T14:34:20;25.70;99.90
26743;DHT22;14341;51.256;22.478;2023-04-24T14:37:23;26.00;99.90
26743;DHT22;14341;51.256;22.478;2023-04-24T14:40:27;26.20;99.90
26743;DHT22;14341;51.256;22.478;2023-04-24T14:43:50;26.90;99.90
26743;DHT22;14341;51.256;22.478;2023-04-24T14:46:53;26.40;99.90
26743;DHT22;14341;51.256;22.478;2023-04-24T14:49:59;26.30;99.90
26743;DHT22;14341;51.256;22.478;2023-04-24T14:53:02;26.10;99.90
26743;DHT22;14341;51.256;22.478;2023-04-24T14:56:06;26.20;99.90
26743;DHT22;14341;51.256;22.478;2023-04-24T14:59:09;26.00;99.90
26743;DHT22;14341;51.256;22.478;2023-04-24T15:02:13;25.70;99.90
26743;DHT22;14341;51.256;22.478;2023-04-24T15:05:20;25.60;99.90
26743;DHT22;14341;51.256;22.478;2023-04-24T15:08:25;25.00;99.90
26743;DHT22;14341;51.256;22.478;2023-04-24T15:11:28;25.30;99.90
26743;DHT22;14341;51.256;22.478;2023-04-24T15:14:32;25.70;99.90
26743;DHT22;14341;51.256;22.478;2023-04-24T15:17:35;25.40;99.90
26743;DHT22;14341;51.256;22.478;2023-04-24T15:20:40;25.20;99.90
26743;DHT22;14341;51.256;22.478;2023-04-24T15:23:43;26.00;99.90
26743;DHT22;14341;51.256;22.478;2023-04-24T15:26:47;26.20;99.90
26743;DHT22;14341;51.256;22.478;2023-04-24T15:29:50;26.80;99.90
26743;DHT22;14341;51.256;22.478;2023-04-24T15:32:55;26.80;99.90
26743;DHT22;14341;51.256;22.478;2023-04-24T15:36:00;27.50;99.90
26743;DHT22;14341;51.256;22.478;2023-04-24T15:39:03;27.00;99.90
26743;DHT22;14341;51.256;22.478;2023-04-24T15:42:10;26.50;99.90
26743;DHT22;14341;51.256;22.478;2023-04-24T15:45:13;25.10;99.90
26743;DHT22;14341;51.256;22.478;2023-04-24T15:48:16;25.40;99.90
26743;DHT22;14341;51.256;22.478;2023-04-24T15:51:22;24.40;99.90
26743;DHT22;14341;51.256;22.478;2023-04-24T15:54:26;24.30;99.90
26743;DHT22;14341;51.256;22.478;2023-04-24T15:57:29;24.50;99.90
26743;DHT22;14341;51.256;22.478;2023-04-24T16:00:32;24.10;99.90
26743;DHT22;14341;51.256;22.478;2023-04-24T16:03:37;24.40;99.90
26743;DHT22;14341;51.256;22.478;2023-04-24T16:06:42;24.70;99.90
26743;DHT22;14341;51.256;22.478;2023-04-24T16:09:46;24.10;99.90
26743;DHT22;14341;51.256;22.478;2023-04-24T16:12:49;24.30;99.90
26743;DHT22;14341;51.256;22.478;2023-04-24T16:15:55;24.10;99.90
26743;DHT22;14341;51.256;22.478;2023-04-24T16:18:58;23.90;99.90
26743;DHT22;14341;51.256;22.478;2023-04-24T16:22:03;23.80;99.90
26743;DHT22;14341;51.256;22.478;2023-04-24T16:25:08;24.20;99.90
26743;DHT22;14341;51.256;22.478;2023-04-24T16:28:12;23.80;99.90
26743;DHT22;14341;51.256;22.478;2023-04-24T16:31:15;22.80;99.90
26743;DHT22;14341;51.256;22.478;2023-04-24T16:34:19;21.70;99.90
26743;DHT22;14341;51.256;22.478;2023-04-24T16:37:24;21.00;99.90
26743;DHT22;14341;51.256;22.478;2023-04-24T16:40:28;20.10;99.90
26743;DHT22;14341;51.256;22.478;2023-04-24T16:43:31;20.10;99.90
26743;DHT22;14341;51.256;22.478;2023-04-24T16:46:35;20.00;99.90
26743;DHT22;14341;51.256;22.478;2023-04-24T16:49:40;19.80;99.90
26743;DHT22;14341;51.256;22.478;2023-04-24T16:52:44;19.30;99.90
26743;DHT22;14341;51.256;22.478;2023-04-24T16:55:48;18.90;99.90
26743;DHT22;14341;51.256;22.478;2023-04-24T16:58:52;18.70;99.90
26743;DHT22;14341;51.256;22.478;2023-04-24T17:01:56;18.40;99.90
26743;DHT22;14341;51.256;22.478;2023-04-24T17:04:59;18.30;99.90
26743;DHT22;14341;51.256;22.478;2023-04-24T17:08:04;18.20;99.90
26743;DHT22;14341;51.256;22.478;2023-04-24T17:11:07;18.00;99.90
26743;DHT22;14341;51.256;22.478;2023-04-24T17:14:11;17.90;99.90
26743;DHT22;14341;51.256;22.478;2023-04-24T17:17:14;17.70;99.90
26743;DHT22;14341;51.256;22.478;2023-04-24T17:20:19;17.50;99.90
26743;DHT22;14341;51.256;22.478;2023-04-24T17:23:26;17.40;99.90
26743;DHT22;14341;51.256;22.478;2023-04-24T17:26:29;17.30;99.90
26743;DHT22;14341;51.256;22.478;2023-04-24T17:29:33;17.10;99.90
26743;DHT22;14341;51.256;22.478;2023-04-24T17:32:37;16.90;99.90
26743;DHT22;14341;51.256;22.478;2023-04-24T17:35:40;16.80;99.90
26743;DHT22;14341;51.256;22.478;2023-04-24T17:38:45;16.70;99.90
26743;DHT22;14341;51.256;22.478;2023-04-24T17:41:50;16.60;99.90
26743;DHT22;14341;51.256;22.478;2023-04-24T17:44:53;16.40;99.90
26743;DHT22;14341;51.256;22.478;2023-04-24T17:47:57;16.40;99.90
26743;DHT22;14341;51.256;22.478;2023-04-24T17:51:00;16.40;99.90
26743;DHT22;14341;51.256;22.478;2023-04-24T17:54:05;16.30;99.90
26743;DHT22;14341;51.256;22.478;2023-04-24T17:57:08;16.30;99.90
26743;DHT22;14341;51.256;22.478;2023-04-24T18:00:13;16.20;99.90
26743;DHT22;14341;51.256;22.478;2023-04-24T18:03:16;15.90;99.90
26743;DHT22;14341;51.256;22.478;2023-04-24T18:06:20;15.80;99.90
26743;DHT22;14341;51.256;22.478;2023-04-24T18:09:24;15.60;99.90
26743;DHT22;14341;51.256;22.478;2023-04-24T18:12:28;15.40;99.90
26743;DHT22;14341;51.256;22.478;2023-04-24T18:15:31;15.40;99.90
26743;DHT22;14341;51.256;22.478;2023-04-24T18:18:36;15.30;99.90
26743;DHT22;14341;51.256;22.478;2023-04-24T18:21:40;15.20;99.90
26743;DHT22;14341;51.256;22.478;2023-04-24T18:24:45;15.00;1.00
26743;DHT22;14341;51.256;22.478;2023-04-24T18:27:48;14.80;1.00
26743;DHT22;14341;51.256;22.478;2023-04-24T18:30:52;14.60;1.00
26743;DHT22;14341;51.256;22.478;2023-04-24T18:33:55;14.50;1.00
26743;DHT22;14341;51.256;22.478;2023-04-24T18:36:59;14.50;1.00
26743;DHT22;14341;51.256;22.478;2023-04-24T18:40:05;14.70;1.00
26743;DHT22;14341;51.256;22.478;2023-04-24T18:43:10;14.90;1.00
26743;DHT22;14341;51.256;22.478;2023-04-24T18:46:14;14.80;1.00
26743;DHT22;14341;51.256;22.478;2023-04-24T18:49:17;15.10;99.90
26743;DHT22;14341;51.256;22.478;2023-04-24T18:52:21;15.20;99.90
26743;DHT22;14341;51.256;22.478;2023-04-24T18:55:26;14.90;99.90
26743;DHT22;14341;51.256;22.478;2023-04-24T18:58:31;14.90;1.00
26743;DHT22;14341;51.256;22.478;2023-04-24T19:01:35;14.70;1.00
26743;DHT22;14341;51.256;22.478;2023-04-24T19:04:39;14.60;1.00
26743;DHT22;14341;51.256;22.478;2023-04-24T19:07:42;14.50;1.00
26743;DHT22;14341;51.256;22.478;2023-04-24T19:10:47;14.30;1.00
26743;DHT22;14341;51.256;22.478;2023-04-24T19:13:50;14.10;1.00
26743;DHT22;14341;51.256;22.478;2023-04-24T19:16:54;13.90;1.00
26743;DHT22;14341;51.256;22.478;2023-04-24T19:19:57;13.70;1.00
26743;DHT22;14341;51.256;22.478;2023-04-24T19:23:03;13.70;17.50